KDTW/DTW METAR and TAF weather

Enter ICAO airport designator
Station Type Date Time Source
KDTW METAR 2019/02/20 06:53 UTC NOAA

KDTW 200653Z 09004KT 7SM BKN150 OVC220 M05/M09 A3044 RMK AO2 SLP316 T10501094


Station Type Date Time Source
KDTW Decoded METAR 2019/02/20 06:53 UTC NOAA

DETROIT METROPOLITAN, MI, United States (KDTW) 42-14N 83-20W 195M
Feb 20, 2019 - 01:53 AM EST / 2019.02.20 0653 UTC
Wind: from the E (090 degrees) at 5 MPH (4 KT):0
Visibility: 7 mile(s):0
Sky conditions: overcast
Temperature: 23.0 F (-5.0 C)
Windchill: 15 F (-9 C):1
Dew Point: 15.1 F (-9.4 C)
Relative Humidity: 71%
Pressure (altimeter): 30.44 in. Hg (1030 hPa)
ob: KDTW 200653Z 09004KT 7SM BKN150 OVC220 M05/M09 A3044 RMK AO2 SLP316 T10501094
cycle: 7

Station Type Date Time Source
KDTW TAF 2019/02/20 06:27 UTC NOAA

TAF KDTW 200525Z 2006/2112 07005KT P6SM OVC200
FM201100 09010KT 2SM -SN OVC025
FM201300 09010KT 1SM -SNPL OVC015
FM201600 09013KT 2SM -FZRA BR OVC007
FM202000 12013KT 1SM -RA BR OVC004
FM210200 23013G20KT P6SM OVC015


Example: see airport list